createdAt,value
2019-06-26T00:00:08.443Z,58.30
2019-06-26T00:02:37.054Z,58.50
2019-06-26T00:05:08.436Z,58.70
2019-06-26T00:07:37.048Z,58.60
2019-06-26T00:10:06.461Z,58.50
2019-06-26T00:12:35.135Z,58.50
2019-06-26T00:15:05.675Z,58.70
2019-06-26T00:17:34.246Z,59.00
2019-06-26T00:20:03.284Z,59.40
2019-06-26T00:22:31.818Z,59.60
2019-06-26T00:25:00.355Z,59.80
2019-06-26T00:27:28.919Z,59.90
2019-06-26T00:29:57.487Z,60.20
2019-06-26T00:32:26.032Z,60.50
2019-06-26T00:34:54.573Z,60.70
2019-06-26T00:37:23.467Z,60.80
2019-06-26T00:39:52.018Z,60.80
2019-06-26T00:42:20.566Z,61.10
2019-06-26T00:44:49.135Z,61.10
2019-06-26T00:47:18.003Z,62.20
2019-06-26T00:49:46.543Z,61.30
2019-06-26T00:52:15.123Z,61.50
2019-06-26T00:54:43.661Z,61.50
2019-06-26T00:57:12.223Z,61.40
2019-06-26T00:59:40.771Z,61.60
2019-06-26T01:02:09.305Z,61.90
2019-06-26T01:04:42.495Z,62.00
2019-06-26T01:07:11.038Z,61.80
2019-06-26T01:09:39.636Z,62.30
2019-06-26T01:12:08.194Z,62.20
2019-06-26T01:14:36.665Z,62.80
2019-06-26T01:17:05.911Z,62.80
2019-06-26T01:19:34.931Z,63.20
2019-06-26T01:22:03.505Z,63.60
2019-06-26T01:24:32.042Z,63.80
2019-06-26T01:27:00.642Z,64.20
2019-06-26T01:29:32.550Z,64.10
2019-06-26T01:31:59.475Z,64.30
2019-06-26T01:34:47.389Z,65.10
2019-06-26T01:37:15.918Z,65.50
2019-06-26T01:39:44.765Z,66.00
2019-06-26T01:42:13.335Z,66.40
2019-06-26T01:44:41.877Z,66.40
2019-06-26T01:47:10.428Z,66.80
2019-06-26T01:49:39.219Z,67.20
2019-06-26T01:52:07.767Z,67.20
2019-06-26T01:54:36.322Z,67.40
2019-06-26T01:57:04.869Z,67.50
2019-06-26T01:59:33.414Z,67.40
2019-06-26T02:02:02.039Z,67.90
2019-06-26T02:04:30.587Z,68.00
2019-06-26T02:06:59.245Z,67.90
2019-06-26T02:09:27.771Z,68.90
2019-06-26T02:11:56.389Z,68.60
2019-06-26T02:14:31.142Z,69.00
2019-06-26T02:16:55.075Z,69.30
2019-06-26T02:19:23.608Z,69.60
2019-06-26T02:21:52.518Z,69.50
2019-06-26T02:24:21.055Z,69.90
2019-06-26T02:26:49.670Z,71.50
2019-06-26T02:29:18.571Z,71.10
2019-06-26T02:31:47.069Z,71.30
2019-06-26T02:34:15.595Z,72.00
2019-06-26T02:36:44.148Z,72.20
2019-06-26T02:39:12.785Z,72.20
2019-06-26T02:41:41.328Z,72.60
2019-06-26T02:44:09.960Z,72.80
2019-06-26T02:46:38.516Z,73.10
2019-06-26T02:49:07.080Z,73.40
2019-06-26T02:51:35.627Z,73.60
2019-06-26T02:54:04.691Z,74.00
2019-06-26T02:56:33.255Z,74.50
2019-06-26T02:59:01.864Z,74.80
2019-06-26T03:01:30.491Z,74.30
2019-06-26T03:03:59.031Z,75.00
2019-06-26T03:06:28.011Z,76.40
2019-06-26T03:08:56.571Z,76.20
2019-06-26T03:11:25.182Z,76.80
2019-06-26T03:13:53.719Z,77.20
2019-06-26T03:16:22.572Z,77.70
2019-06-26T03:18:51.188Z,77.50
2019-06-26T03:21:19.799Z,79.40
2019-06-26T03:23:48.287Z,78.20
2019-06-26T03:26:17.207Z,78.00
2019-06-26T03:28:45.746Z,77.80
2019-06-26T03:31:14.336Z,78.00
2019-06-26T03:33:42.867Z,77.40
2019-06-26T03:36:11.491Z,77.10
2019-06-26T03:38:40.055Z,77.50
2019-06-26T03:41:08.588Z,77.60
2019-06-26T03:43:37.390Z,77.20
2019-06-26T03:46:05.951Z,76.90
2019-06-26T03:48:34.586Z,77.30
2019-06-26T03:51:03.467Z,77.70
2019-06-26T03:53:32.008Z,78.30
2019-06-26T03:56:00.925Z,78.10
2019-06-26T03:58:29.462Z,78.50
2019-06-26T04:00:59.328Z,78.60
2019-06-26T04:03:27.937Z,78.30
2019-06-26T04:05:56.487Z,78.60
2019-06-26T04:08:25.051Z,78.70
2019-06-26T04:10:53.590Z,78.10
2019-06-26T04:13:22.126Z,78.70
2019-06-26T04:15:51.141Z,78.60
2019-06-26T04:18:20.086Z,79.00
2019-06-26T04:20:48.618Z,79.00
2019-06-26T04:23:17.110Z,79.00
2019-06-26T04:25:45.646Z,78.60
2019-06-26T04:28:14.210Z,77.90
2019-06-26T04:30:42.678Z,78.70
2019-06-26T04:33:11.284Z,78.40
2019-06-26T04:35:39.905Z,78.20
2019-06-26T04:38:08.773Z,77.60
2019-06-26T04:40:37.390Z,77.50
2019-06-26T04:43:05.891Z,76.70
2019-06-26T04:45:34.515Z,76.00
2019-06-26T04:48:06.662Z,74.70
2019-06-26T04:50:33.531Z,75.30
2019-06-26T04:53:02.022Z,75.10
2019-06-26T04:55:30.570Z,73.70
2019-06-26T04:57:59.483Z,73.50
2019-06-26T05:00:27.944Z,73.10
2019-06-26T05:02:56.478Z,73.40
2019-06-26T05:05:38.550Z,72.80
2019-06-26T05:07:55.314Z,72.70
2019-06-26T05:10:23.857Z,71.10
2019-06-26T05:12:52.726Z,71.50
2019-06-26T05:15:21.432Z,69.70
2019-06-26T05:17:49.962Z,69.30
2019-06-26T05:20:20.266Z,70.00
2019-06-26T05:22:48.794Z,70.80
2019-06-26T05:25:17.671Z,68.90
2019-06-26T05:27:46.234Z,70.00
2019-06-26T05:30:14.934Z,67.40
2019-06-26T05:32:43.518Z,68.20
2019-06-26T05:35:12.835Z,65.60
2019-06-26T05:37:41.396Z,64.60
2019-06-26T05:40:30.790Z,68.60
2019-06-26T05:42:59.358Z,64.80
2019-06-26T05:45:27.964Z,64.00
2019-06-26T05:47:56.528Z,62.50
2019-06-26T05:50:25.529Z,62.50
2019-06-26T05:52:54.080Z,63.50
2019-06-26T05:55:22.718Z,64.00
2019-06-26T05:57:51.344Z,60.10
2019-06-26T06:00:20.442Z,59.30
2019-06-26T06:02:48.982Z,59.50
2019-06-26T06:05:17.699Z,58.00
2019-06-26T06:07:46.227Z,56.50
2019-06-26T06:10:15.198Z,55.60
2019-06-26T06:12:43.841Z,58.00
2019-06-26T06:15:12.717Z,57.00
2019-06-26T06:17:41.414Z,55.20
2019-06-26T06:20:10.775Z,55.00
2019-06-26T06:22:39.319Z,54.40
2019-06-26T06:25:09.114Z,53.40
2019-06-26T06:27:37.670Z,54.00
2019-06-26T06:30:19.195Z,54.00
2019-06-26T06:32:47.761Z,53.20
2019-06-26T06:35:16.290Z,51.80
2019-06-26T06:37:44.851Z,51.60
2019-06-26T06:40:34.247Z,51.70
2019-06-26T06:43:02.796Z,50.70
2019-06-26T06:45:31.469Z,51.30
2019-06-26T06:48:00.051Z,48.60
2019-06-26T06:50:28.574Z,49.70
2019-06-26T06:52:57.739Z,46.30
2019-06-26T06:55:26.354Z,43.30
2019-06-26T06:57:54.898Z,42.70
2019-06-26T07:00:26.651Z,44.70
2019-06-26T07:02:55.258Z,44.20
2019-06-26T07:05:23.866Z,42.00
2019-06-26T07:07:52.358Z,44.00
2019-06-26T07:10:20.898Z,42.70
2019-06-26T07:12:49.727Z,42.60
2019-06-26T07:15:18.442Z,39.90
2019-06-26T07:17:46.990Z,42.80
2019-06-26T07:20:36.380Z,40.70
2019-06-26T07:23:05.006Z,40.70
2019-06-26T07:25:33.620Z,38.40
2019-06-26T07:28:02.363Z,38.50
2019-06-26T07:30:30.915Z,38.50
2019-06-26T07:32:59.441Z,36.20
2019-06-26T07:35:28.042Z,37.50
2019-06-26T07:37:59.968Z,35.90
2019-06-26T07:40:26.754Z,38.60
2019-06-26T07:42:55.874Z,36.90
2019-06-26T07:45:24.418Z,36.00
2019-06-26T07:47:53.010Z,37.10
2019-06-26T07:50:21.918Z,34.70
2019-06-26T07:52:50.459Z,34.60
2019-06-26T07:55:18.947Z,34.90
2019-06-26T07:57:47.488Z,34.50
2019-06-26T08:00:16.577Z,35.90
2019-06-26T08:02:45.140Z,37.40
2019-06-26T08:05:14.938Z,36.10
2019-06-26T08:07:43.555Z,33.50
2019-06-26T08:10:32.882Z,34.90
2019-06-26T08:13:01.614Z,34.30
2019-06-26T08:15:30.457Z,34.90
2019-06-26T08:18:00.859Z,32.40
2019-06-26T08:20:29.301Z,33.00
2019-06-26T08:22:57.953Z,32.20
2019-06-26T08:25:26.575Z,32.70
2019-06-26T08:27:55.217Z,34.30
2019-06-26T08:30:23.962Z,33.10
2019-06-26T08:32:52.680Z,32.40
2019-06-26T08:35:21.290Z,34.00
2019-06-26T08:37:49.887Z,33.40
2019-06-26T08:40:18.813Z,33.20
2019-06-26T08:42:47.320Z,33.30
2019-06-26T08:45:16.191Z,34.30
2019-06-26T08:47:44.752Z,34.40
2019-06-26T08:50:15.048Z,33.30
2019-06-26T08:52:43.930Z,34.20
2019-06-26T08:55:12.619Z,34.00
2019-06-26T08:57:41.187Z,30.70
2019-06-26T09:00:10.980Z,32.10
2019-06-26T09:02:39.569Z,32.90
2019-06-26T09:05:08.790Z,33.70
2019-06-26T09:07:37.693Z,31.70
2019-06-26T09:10:09.748Z,34.40
2019-06-26T09:12:38.532Z,33.50
2019-06-26T09:15:08.442Z,32.40
2019-06-26T09:17:37.078Z,34.80
2019-06-26T09:20:06.750Z,33.40
2019-06-26T09:22:35.386Z,33.80
2019-06-26T09:25:20.224Z,33.40
2019-06-26T09:27:36.687Z,31.00
2019-06-26T09:30:07.437Z,35.30
2019-06-26T09:32:36.063Z,32.50
2019-06-26T09:35:06.124Z,32.40
2019-06-26T09:37:34.762Z,36.00
2019-06-26T09:40:04.303Z,31.10
2019-06-26T09:42:32.794Z,33.70
2019-06-26T09:45:01.441Z,33.90
2019-06-26T09:47:31.063Z,30.80
2019-06-26T09:49:59.923Z,32.30
2019-06-26T09:52:28.475Z,32.80
2019-06-26T09:54:57.085Z,32.20
2019-06-26T09:57:25.602Z,32.60
2019-06-26T09:59:54.132Z,32.40
2019-06-26T10:02:22.662Z,31.30
2019-06-26T10:04:51.254Z,33.70
2019-06-26T10:07:19.794Z,33.20
2019-06-26T10:09:48.321Z,32.70
2019-06-26T10:12:16.806Z,32.00
2019-06-26T10:14:47.673Z,31.00
2019-06-26T10:17:15.870Z,32.70
2019-06-26T10:19:44.382Z,31.60
2019-06-26T10:22:12.965Z,33.70
2019-06-26T10:24:41.500Z,35.20
2019-06-26T10:27:10.034Z,35.40
2019-06-26T10:29:38.981Z,34.80
2019-06-26T10:32:07.576Z,34.30
2019-06-26T10:34:36.123Z,34.50
2019-06-26T10:37:04.846Z,33.50
2019-06-26T10:39:33.309Z,31.50
2019-06-26T10:42:01.941Z,30.90
2019-06-26T10:44:30.546Z,29.40
2019-06-26T10:46:59.869Z,29.50
2019-06-26T10:49:28.445Z,30.70
2019-06-26T10:51:56.909Z,30.00
2019-06-26T10:54:25.426Z,29.30
2019-06-26T10:56:53.935Z,28.50
2019-06-26T10:59:22.850Z,29.10
2019-06-26T11:01:51.419Z,31.00
2019-06-26T11:04:19.949Z,31.60
2019-06-26T11:06:48.488Z,31.10
2019-06-26T11:09:17.051Z,33.00
2019-06-26T11:11:45.597Z,32.00
2019-06-26T11:14:14.626Z,31.70
2019-06-26T11:16:43.196Z,33.70
2019-06-26T11:19:11.718Z,36.10
2019-06-26T11:21:40.204Z,34.10
2019-06-26T11:24:08.820Z,30.30
2019-06-26T11:26:37.345Z,32.30
2019-06-26T11:29:05.978Z,33.30
2019-06-26T11:31:34.570Z,30.90
2019-06-26T11:34:03.110Z,33.30
2019-06-26T11:36:31.666Z,30.80
2019-06-26T11:39:00.197Z,32.60
2019-06-26T11:41:28.684Z,33.70
2019-06-26T11:43:57.217Z,31.00
2019-06-26T11:46:25.780Z,34.70
2019-06-26T11:48:54.495Z,30.00
2019-06-26T11:51:23.070Z,34.50
2019-06-26T11:53:51.595Z,36.00
2019-06-26T11:56:20.157Z,33.90
2019-06-26T11:58:48.679Z,33.50
2019-06-26T12:01:17.214Z,34.50
2019-06-26T12:03:45.770Z,33.70
2019-06-26T12:06:18.867Z,35.90
2019-06-26T12:08:44.405Z,34.20
2019-06-26T12:11:12.953Z,34.70
2019-06-26T12:13:41.445Z,33.40
2019-06-26T12:16:10.040Z,33.00
2019-06-26T12:18:38.599Z,34.50
2019-06-26T12:21:07.129Z,34.30
2019-06-26T12:23:35.729Z,34.70
2019-06-26T12:26:04.288Z,33.30
2019-06-26T12:28:32.818Z,33.70
2019-06-26T12:31:01.333Z,33.10
2019-06-26T12:33:29.855Z,33.90
2019-06-26T12:35:58.420Z,31.90
2019-06-26T12:38:26.963Z,31.20
2019-06-26T12:40:55.603Z,31.80
2019-06-26T12:43:24.456Z,31.40
2019-06-26T12:45:53.061Z,32.70
2019-06-26T12:48:21.623Z,32.20
2019-06-26T12:50:50.191Z,33.80
2019-06-26T12:53:18.792Z,33.10
2019-06-26T12:55:47.325Z,32.20
2019-06-26T12:58:19.666Z,32.40
2019-06-26T13:00:46.438Z,33.90
2019-06-26T13:03:15.253Z,31.70
2019-06-26T13:05:43.943Z,31.90
2019-06-26T13:08:12.406Z,33.70
2019-06-26T13:10:49.635Z,32.10
2019-06-26T13:13:11.289Z,30.90
2019-06-26T13:15:39.878Z,31.70
2019-06-26T13:18:08.408Z,29.70
2019-06-26T13:20:51.651Z,32.80
2019-06-26T13:23:07.194Z,31.80
2019-06-26T13:25:55.406Z,33.20
2019-06-26T13:28:23.887Z,32.20
2019-06-26T13:30:53.513Z,33.40
2019-06-26T13:33:22.342Z,33.60
2019-06-26T13:35:50.877Z,32.80
2019-06-26T13:38:19.422Z,32.40
2019-06-26T13:40:47.977Z,32.40
2019-06-26T13:43:16.754Z,34.00
2019-06-26T13:45:45.325Z,31.50
2019-06-26T13:48:13.858Z,31.90
2019-06-26T13:50:42.444Z,32.80
2019-06-26T13:53:11.043Z,30.60
2019-06-26T13:55:40.175Z,32.80
2019-06-26T13:58:08.791Z,32.40
2019-06-26T14:00:37.321Z,31.90
2019-06-26T14:03:05.801Z,31.10
2019-06-26T14:05:34.263Z,31.00
2019-06-26T14:08:02.823Z,31.00
2019-06-26T14:10:31.370Z,30.70
2019-06-26T14:12:59.954Z,29.10
2019-06-26T14:15:28.488Z,34.60
2019-06-26T14:17:57.020Z,28.90
2019-06-26T14:20:25.576Z,28.50
2019-06-26T14:22:54.687Z,31.80
2019-06-26T14:25:23.244Z,31.40
2019-06-26T14:27:51.774Z,30.30
2019-06-26T14:30:20.647Z,30.10
2019-06-26T14:32:49.405Z,31.80
2019-06-26T14:35:18.095Z,32.40
2019-06-26T14:37:46.907Z,34.10
2019-06-26T14:40:16.210Z,32.40
2019-06-26T14:42:44.829Z,29.90
2019-06-26T14:45:13.822Z,30.90
2019-06-26T14:47:42.551Z,29.90
2019-06-26T14:50:11.656Z,30.50
2019-06-26T14:52:40.252Z,32.00
2019-06-26T14:55:09.420Z,32.10
2019-06-26T14:57:38.070Z,30.70
2019-06-26T15:00:08.523Z,30.10
2019-06-26T15:02:37.159Z,29.10
2019-06-26T15:05:07.431Z,30.60
2019-06-26T15:07:35.969Z,29.00
2019-06-26T15:10:07.435Z,29.40
2019-06-26T15:12:36.116Z,28.70
2019-06-26T15:15:06.122Z,28.30
2019-06-26T15:17:34.847Z,29.70
2019-06-26T15:20:03.872Z,28.80
2019-06-26T15:22:32.430Z,28.60
2019-06-26T15:25:00.975Z,29.40
2019-06-26T15:27:29.503Z,29.30
2019-06-26T15:29:58.060Z,29.50
2019-06-26T15:32:26.614Z,31.20
2019-06-26T15:34:55.193Z,30.80
2019-06-26T15:37:24.207Z,29.40
2019-06-26T15:39:52.810Z,29.70
2019-06-26T15:42:21.465Z,28.70
2019-06-26T15:44:50.014Z,29.60
2019-06-26T15:47:18.551Z,29.40
2019-06-26T15:49:47.126Z,29.30
2019-06-26T15:52:15.778Z,30.40
2019-06-26T15:54:44.500Z,29.30
2019-06-26T15:57:13.077Z,29.00
2019-06-26T15:59:41.674Z,29.80
2019-06-26T16:02:10.355Z,29.50
2019-06-26T16:04:38.939Z,29.30
2019-06-26T16:07:07.566Z,30.20
2019-06-26T16:09:36.450Z,29.40
2019-06-26T16:12:05.443Z,30.50
2019-06-26T16:14:33.980Z,31.10
2019-06-26T16:17:05.807Z,30.20
2019-06-26T16:19:34.663Z,30.10
2019-06-26T16:22:03.712Z,31.80
2019-06-26T16:24:32.274Z,30.70
2019-06-26T16:27:01.737Z,30.80
2019-06-26T16:29:30.270Z,30.70
2019-06-26T16:31:59.018Z,31.90
2019-06-26T16:34:27.474Z,32.50
2019-06-26T16:36:56.030Z,34.60
2019-06-26T16:39:24.519Z,34.80
2019-06-26T16:41:53.193Z,35.20
2019-06-26T16:44:21.823Z,36.00
2019-06-26T16:46:50.359Z,35.50
2019-06-26T16:49:18.919Z,36.10
2019-06-26T16:51:47.477Z,36.10
2019-06-26T16:54:16.016Z,36.80
2019-06-26T16:56:44.594Z,37.20
2019-06-26T16:59:13.116Z,37.80
2019-06-26T17:01:41.912Z,34.90
2019-06-26T17:04:10.476Z,35.80
2019-06-26T17:06:39.010Z,36.50
2019-06-26T17:09:09.563Z,35.90
2019-06-26T17:11:38.171Z,37.90
2019-06-26T17:14:06.738Z,37.30
2019-06-26T17:16:35.234Z,36.50
2019-06-26T17:19:04.142Z,37.50
2019-06-26T17:21:32.691Z,37.50
2019-06-26T17:24:01.219Z,37.70
2019-06-26T17:26:29.779Z,37.50
2019-06-26T17:28:58.333Z,37.10
2019-06-26T17:31:28.704Z,37.20
2019-06-26T17:33:57.234Z,36.80
2019-06-26T17:36:28.672Z,37.00
2019-06-26T17:38:56.018Z,37.30
2019-06-26T17:41:24.647Z,37.30
2019-06-26T17:43:53.220Z,36.30
2019-06-26T17:46:22.034Z,37.50
2019-06-26T17:48:50.781Z,36.80
2019-06-26T17:51:19.320Z,37.30
2019-06-26T17:53:48.197Z,37.70
2019-06-26T17:56:16.759Z,38.00
2019-06-26T17:58:45.311Z,38.20
2019-06-26T18:01:13.806Z,38.10
2019-06-26T18:03:42.674Z,39.30
2019-06-26T18:06:11.194Z,40.30
2019-06-26T18:08:39.671Z,40.80
2019-06-26T18:11:08.238Z,40.60
2019-06-26T18:13:36.778Z,40.00
2019-06-26T18:16:05.385Z,40.70
2019-06-26T18:18:34.226Z,41.00
2019-06-26T18:21:02.773Z,42.30
2019-06-26T18:23:37.850Z,42.60
2019-06-26T18:26:12.236Z,42.40
2019-06-26T18:28:32.139Z,42.80
2019-06-26T18:31:00.690Z,43.70
2019-06-26T18:33:29.237Z,45.10
2019-06-26T18:35:57.808Z,45.50
2019-06-26T18:38:26.411Z,46.50
2019-06-26T18:40:54.982Z,47.70
2019-06-26T18:43:23.516Z,48.60
2019-06-26T18:45:52.050Z,49.20
2019-06-26T18:48:20.606Z,48.90
2019-06-26T18:50:49.189Z,48.50
2019-06-26T18:53:18.086Z,49.40
2019-06-26T18:55:46.631Z,49.40
2019-06-26T18:58:15.176Z,49.80
2019-06-26T19:00:44.026Z,50.40
2019-06-26T19:03:12.588Z,50.10
2019-06-26T19:05:41.153Z,50.20
2019-06-26T19:08:09.983Z,50.80
2019-06-26T19:10:38.530Z,51.10
2019-06-26T19:13:07.097Z,51.70
2019-06-26T19:15:35.659Z,52.50
2019-06-26T19:18:04.383Z,52.50
2019-06-26T19:20:36.439Z,53.20
2019-06-26T19:23:08.863Z,52.80
2019-06-26T19:25:37.910Z,52.60
2019-06-26T19:28:07.182Z,52.70
2019-06-26T19:30:36.387Z,51.70
2019-06-26T19:33:05.825Z,51.90
2019-06-26T19:35:34.383Z,51.50
2019-06-26T19:38:13.954Z,51.70
2019-06-26T19:40:58.813Z,51.60
2019-06-26T19:43:51.388Z,52.30
2019-06-26T19:46:35.260Z,52.00
2019-06-26T19:49:06.924Z,52.70
2019-06-26T19:51:38.006Z,52.10
2019-06-26T19:54:22.917Z,53.10
2019-06-26T19:56:42.617Z,53.70
2019-06-26T19:59:11.746Z,53.40
2019-06-26T20:01:40.435Z,53.80
2019-06-26T20:04:09.054Z,54.20
2019-06-26T20:06:37.734Z,54.00
2019-06-26T20:09:07.216Z,55.00
2019-06-26T20:11:36.017Z,55.40
2019-06-26T20:14:04.602Z,55.50
2019-06-26T20:16:52.659Z,56.00
2019-06-26T20:19:21.270Z,56.80
2019-06-26T20:21:49.852Z,57.40
2019-06-26T20:24:18.479Z,57.70
2019-06-26T20:26:47.084Z,58.00
2019-06-26T20:29:15.769Z,58.60
2019-06-26T20:31:46.118Z,59.10
2019-06-26T20:34:14.724Z,59.30
2019-06-26T20:36:43.284Z,59.60
2019-06-26T20:39:11.898Z,59.80
2019-06-26T20:41:40.475Z,59.10
2019-06-26T20:44:09.180Z,59.00
2019-06-26T20:46:38.155Z,59.00
2019-06-26T20:49:06.813Z,59.00
2019-06-26T20:51:35.643Z,58.90
2019-06-26T20:54:04.199Z,58.70
2019-06-26T20:56:32.744Z,57.90
2019-06-26T20:59:01.281Z,58.10
2019-06-26T21:01:29.911Z,58.30
2019-06-26T21:03:58.443Z,58.20
2019-06-26T21:06:27.022Z,57.90
2019-06-26T21:08:55.586Z,57.50
2019-06-26T21:11:24.134Z,57.70
2019-06-26T21:13:52.690Z,58.00
2019-06-26T21:16:21.175Z,58.00
2019-06-26T21:18:49.711Z,58.00
2019-06-26T21:21:18.264Z,58.00
2019-06-26T21:23:46.835Z,59.00
2019-06-26T21:26:15.446Z,59.20
2019-06-26T21:28:44.007Z,59.20
2019-06-26T21:31:12.559Z,58.60
2019-06-26T21:33:41.121Z,59.00
2019-06-26T21:36:09.721Z,58.40
2019-06-26T21:38:38.229Z,58.40
2019-06-26T21:41:06.779Z,58.90
2019-06-26T21:43:35.319Z,58.20
2019-06-26T21:46:03.887Z,58.20
2019-06-26T21:48:32.429Z,58.50
2019-06-26T21:51:00.973Z,58.10
2019-06-26T21:53:29.530Z,57.90
2019-06-26T21:55:58.066Z,58.50
2019-06-26T21:58:26.559Z,58.40
2019-06-26T22:00:55.206Z,58.30
2019-06-26T22:03:23.851Z,58.40
2019-06-26T22:05:52.829Z,58.50
2019-06-26T22:08:21.450Z,58.10
2019-06-26T22:10:50.114Z,58.70
2019-06-26T22:13:18.743Z,59.10
2019-06-26T22:15:47.282Z,58.00
2019-06-26T22:18:15.825Z,58.50
2019-06-26T22:20:44.383Z,58.10
2019-06-26T22:23:12.911Z,58.60
2019-06-26T22:25:51.004Z,58.40
2019-06-26T22:28:11.664Z,58.30
2019-06-26T22:30:40.276Z,58.50
2019-06-26T22:33:08.915Z,58.30
2019-06-26T22:35:37.451Z,58.60
2019-06-26T22:38:06.131Z,58.50
2019-06-26T22:40:34.740Z,58.90
2019-06-26T22:43:03.368Z,59.30
2019-06-26T22:45:31.947Z,59.80
2019-06-26T22:48:00.494Z,59.60
2019-06-26T22:50:29.032Z,60.50
2019-06-26T22:52:57.948Z,60.10
2019-06-26T22:55:26.563Z,60.10
2019-06-26T22:57:55.419Z,60.50
2019-06-26T23:00:24.131Z,60.10
2019-06-26T23:02:52.995Z,61.00
2019-06-26T23:05:21.536Z,61.20
2019-06-26T23:07:50.072Z,61.00
2019-06-26T23:10:19.271Z,61.30
2019-06-26T23:12:47.898Z,61.40
2019-06-26T23:15:16.779Z,61.80
2019-06-26T23:17:45.409Z,61.70
2019-06-26T23:20:14.093Z,62.50
2019-06-26T23:22:42.742Z,62.40
2019-06-26T23:25:11.529Z,62.40
2019-06-26T23:27:40.254Z,62.70
2019-06-26T23:30:35.351Z,63.90
2019-06-26T23:33:04.251Z,63.90
2019-06-26T23:35:32.816Z,63.70
2019-06-26T23:38:01.351Z,63.20
2019-06-26T23:40:29.903Z,64.30
2019-06-26T23:42:58.463Z,64.40
2019-06-26T23:45:26.934Z,65.00
2019-06-26T23:47:55.501Z,65.50
2019-06-26T23:50:24.036Z,65.30
2019-06-26T23:52:52.709Z,66.80
2019-06-26T23:55:21.299Z,66.20
2019-06-26T23:58:09.200Z,66.50
